Time;durP1;ratioP1;P1;durP2;ratioP2;P2;SDS_P1;SDS_P2;PMS_P1;PMS_P2;Temp;Humidity;BMP_temperature;BMP_pressure;BME280_temperature;BME280_humidity;BME280_pressure;Samples;Min_cycle;Max_cycle;Signal;HPM_P1;HPM_P2
2022/08/28 00:01:18;;;;;;;13.82;5.15;;;13.10;99.90;;;;;;4955364;28;20443;-61
2022/08/28 00:03:46;;;;;;;10.77;5.30;;;13.30;99.90;;;;;;4955473;28;20085;-61
2022/08/28 00:06:11;;;;;;;14.88;5.55;;;13.20;99.90;;;;;;4955389;28;20519;-61
2022/08/28 00:08:37;;;;;;;15.25;5.30;;;13.20;99.90;;;;;;4955521;28;20131;-61
2022/08/28 00:11:03;;;;;;;21.17;6.05;;;13.10;99.90;;;;;;4955602;29;20078;-61
2022/08/28 00:13:30;;;;;;;13.18;5.00;;;12.90;99.90;;;;;;4955244;28;20039;-61
2022/08/28 00:15:59;;;;;;;12.75;5.38;;;13.20;99.90;;;;;;4955141;28;20391;-61
2022/08/28 00:18:26;;;;;;;15.10;5.32;;;12.30;99.90;;;;;;4955175;28;20078;-61
2022/08/28 00:20:53;;;;;;;12.70;5.20;;;12.70;99.90;;;;;;4955280;28;20487;-61
2022/08/28 00:23:19;;;;;;;15.98;5.80;;;12.80;99.90;;;;;;4955129;28;20097;-61
2022/08/28 00:25:45;;;;;;;15.82;5.03;;;12.30;99.90;;;;;;4965985;28;20064;-61
2022/08/28 00:28:12;;;;;;;9.85;4.65;;;11.90;99.90;;;;;;4974434;28;20038;-61
2022/08/28 00:30:39;;;;;;;13.82;5.15;;;13.70;99.90;;;;;;4974780;28;20039;-61
2022/08/28 00:33:36;;;;;;;14.13;5.30;;;12.70;99.90;;;;;;4974538;28;20185;-61
2022/08/28 00:36:03;;;;;;;13.60;5.10;;;13.40;99.90;;;;;;4970010;28;20369;-61
2022/08/28 00:38:29;;;;;;;11.95;5.00;;;12.00;99.90;;;;;;4957075;28;20125;-61
2022/08/28 00:40:59;;;;;;;11.68;4.72;;;12.70;99.90;;;;;;4973195;28;20061;-64
2022/08/28 00:43:43;;;;;;;11.85;5.00;;;11.80;99.90;;;;;;4974499;28;20049;-61
2022/08/28 00:46:18;;;;;;;12.82;4.78;;;12.00;99.90;;;;;;4974205;28;20050;-61
2022/08/28 00:48:44;;;;;;;11.38;4.75;;;12.50;99.90;;;;;;4974312;28;20058;-61
2022/08/28 00:53:56;;;;;;;13.15;4.60;;;12.40;99.90;;;;;;4974258;28;20065;-61
2022/08/28 00:56:22;;;;;;;13.02;4.80;;;12.40;99.90;;;;;;4974227;28;20042;-61
2022/08/28 00:58:50;;;;;;;9.68;4.45;;;12.50;99.90;;;;;;4956770;28;20554;-61
2022/08/28 01:01:17;;;;;;;13.32;4.97;;;11.60;99.90;;;;;;4974311;28;20038;-61
2022/08/28 01:03:43;;;;;;;10.75;5.00;;;12.00;99.90;;;;;;4956590;28;20538;-61
2022/08/28 01:06:12;;;;;;;12.27;4.55;;;11.70;99.90;;;;;;4974203;28;20051;-61
2022/08/28 01:08:41;;;;;;;18.40;5.20;;;12.30;99.90;;;;;;4973456;28;20076;-61
2022/08/28 01:11:08;;;;;;;10.93;4.85;;;12.30;99.90;;;;;;4959820;28;20030;-61
2022/08/28 01:13:36;;;;;;;11.43;4.90;;;11.30;99.90;;;;;;4978034;28;20046;-61
2022/08/28 01:16:03;;;;;;;14.20;5.32;;;11.50;99.90;;;;;;4977730;28;20045;-61
2022/08/28 01:18:31;;;;;;;13.93;4.60;;;12.10;99.90;;;;;;4977603;28;20195;-61
2022/08/28 01:21:52;;;;;;;15.68;6.03;;;12.10;99.90;;;;;;4976645;28;20051;-60
2022/08/28 01:24:18;;;;;;;9.40;4.43;;;13.10;99.90;;;;;;4880375;29;20045;-61
2022/08/28 01:26:46;;;;;;;10.82;4.65;;;;;;;;;;4880229;29;20120;-60
2022/08/28 01:29:15;;;;;;;13.70;5.28;;;;;;;;;;4880466;29;20076;-60
2022/08/28 01:31:41;;;;;;;11.57;5.07;;;11.70;99.90;;;;;;4880464;29;20084;-61
2022/08/28 01:34:11;;;;;;;13.73;4.80;;;12.00;99.90;;;;;;4864451;29;20140;-60
2022/08/28 01:36:38;;;;;;;7.63;4.47;;;12.10;99.90;;;;;;4880233;29;20490;-60
2022/08/28 01:39:13;;;;;;;11.23;4.60;;;11.90;99.90;;;;;;4879816;29;20097;-60
2022/08/28 01:41:44;;;;;;;13.02;5.03;;;10.70;99.90;;;;;;4880247;29;20120;-62
2022/08/28 01:44:10;;;;;;;11.38;4.57;;;12.00;99.90;;;;;;4880153;29;20518;-61
2022/08/28 01:46:36;;;;;;;10.02;4.30;;;;;;;;;;4880142;29;20056;-60
2022/08/28 01:49:03;;;;;;;11.40;4.38;;;11.90;99.90;;;;;;4879991;29;20528;-61
2022/08/28 01:51:29;;;;;;;10.02;4.10;;;;;;;;;;4879953;29;20141;-60
2022/08/28 01:53:55;;;;;;;11.23;4.72;;;;;;;;;;4879903;29;20042;-60
2022/08/28 01:56:21;;;;;;;17.00;4.63;;;12.00;99.90;;;;;;4879973;29;20119;-60
2022/08/28 01:58:47;;;;;;;12.73;4.90;;;11.90;99.90;;;;;;4950454;28;20471;-60
2022/08/28 02:01:17;;;;;;;13.50;4.75;;;11.80;99.90;;;;;;4977003;28;20043;-60
2022/08/28 02:03:43;;;;;;;11.20;4.18;;;11.80;99.90;;;;;;4977110;28;20046;-60
2022/08/28 02:06:09;;;;;;;9.48;4.28;;;11.80;99.90;;;;;;4976839;28;20053;-60
2022/08/28 02:08:35;;;;;;;9.80;4.05;;;12.00;99.90;;;;;;4976725;28;20054;-60
2022/08/28 02:11:02;;;;;;;10.07;4.68;;;;;;;;;;4976939;28;20047;-60
2022/08/28 02:13:31;;;;;;;12.35;4.40;;;11.80;99.90;;;;;;4976784;28;20043;-60
2022/08/28 02:15:59;;;;;;;9.20;4.32;;;11.70;99.90;;;;;;4976803;28;20039;-60
2022/08/28 02:18:26;;;;;;;8.30;4.10;;;11.70;99.90;;;;;;4976677;28;20109;-61
2022/08/28 02:20:52;;;;;;;9.25;4.32;;;10.90;99.90;;;;;;4976109;28;20399;-60
2022/08/28 02:23:18;;;;;;;11.93;4.05;;;;;;;;;;4976806;28;20049;-60
2022/08/28 02:25:43;;;;;;;8.90;3.92;;;11.00;99.90;;;;;;4976502;28;20055;-60
2022/08/28 02:28:10;;;;;;;14.70;4.18;;;;;;;;;;4976537;28;20525;-60
2022/08/28 02:30:42;;;;;;;12.55;4.50;;;11.50;99.90;;;;;;4976528;28;20046;-60
2022/08/28 02:33:08;;;;;;;11.90;4.25;;;11.90;99.90;;;;;;4976371;28;20101;-60
2022/08/28 02:35:34;;;;;;;8.02;3.83;;;11.50;99.90;;;;;;4976226;28;20038;-60
2022/08/28 02:38:00;;;;;;;11.43;4.07;;;11.50;99.90;;;;;;4976294;28;20043;-60
2022/08/28 02:40:26;;;;;;;7.95;3.92;;;;;;;;;;4976372;28;20046;-60
2022/08/28 02:42:56;;;;;;;11.35;4.30;;;;;;;;;;4976230;28;20117;-60
2022/08/28 02:45:21;;;;;;;11.30;4.10;;;12.20;99.90;;;;;;4976499;28;20462;-60
2022/08/28 02:47:50;;;;;;;10.05;4.07;;;11.40;99.90;;;;;;4976233;28;20053;-61
2022/08/28 02:50:19;;;;;;;12.15;4.50;;;11.40;99.90;;;;;;4976164;28;20058;-60
2022/08/28 02:52:45;;;;;;;10.70;4.30;;;12.20;99.90;;;;;;4976127;28;20121;-60
2022/08/28 02:55:14;;;;;;;9.82;4.10;;;11.30;99.90;;;;;;4976181;28;20118;-60
2022/08/28 02:57:41;;;;;;;11.88;4.40;;;11.30;99.90;;;;;;4976037;28;20101;-60
2022/08/28 03:00:12;;;;;;;8.75;4.22;;;11.30;99.90;;;;;;4975991;28;20480;-60
2022/08/28 03:02:40;;;;;;;12.43;4.22;;;12.40;99.90;;;;;;4975772;28;20047;-60
2022/08/28 03:05:07;;;;;;;12.52;4.35;;;11.20;99.90;;;;;;4975911;28;20047;-60
2022/08/28 03:07:35;;;;;;;11.00;4.30;;;11.20;99.90;;;;;;4975880;28;20050;-60
2022/08/28 03:10:01;;;;;;;13.48;4.38;;;10.40;99.90;;;;;;4975827;28;20046;-60
2022/08/28 03:12:26;;;;;;;13.15;4.28;;;11.30;99.90;;;;;;4974289;28;20479;-60
2022/08/28 03:14:53;;;;;;;8.70;4.10;;;11.40;99.90;;;;;;4975582;28;20045;-60
2022/08/28 03:17:22;;;;;;;12.27;3.92;;;11.00;99.90;;;;;;4975595;28;20517;-60
2022/08/28 03:19:51;;;;;;;12.23;4.28;;;11.20;99.90;;;;;;4975685;28;20163;-60
2022/08/28 03:23:25;;;;;;;10.88;4.50;;;11.20;99.90;;;;;;4975545;28;20061;-60
2022/08/28 03:25:09;;;;;;;11.63;4.47;;;10.70;99.90;;;;;;4975014;28;20054;-60
2022/08/28 03:27:36;;;;;;;11.15;4.60;;;11.30;99.90;;;;;;4975281;28;20450;-60
2022/08/28 03:30:03;;;;;;;11.73;4.10;;;12.30;99.90;;;;;;4975556;28;20038;-60
2022/08/28 03:32:30;;;;;;;12.60;4.47;;;11.30;99.90;;;;;;4974605;28;20174;-60
2022/08/28 03:34:56;;;;;;;11.32;4.47;;;;;;;;;;4975177;28;20553;-60
2022/08/28 03:37:23;;;;;;;17.13;4.40;;;11.30;99.90;;;;;;4957810;28;20403;-60
2022/08/28 03:39:49;;;;;;;14.15;5.13;;;11.30;99.90;;;;;;4975098;28;20078;-60
2022/08/28 03:42:16;;;;;;;11.45;4.75;;;;;;;;;;4957807;28;20105;-60
2022/08/28 03:44:42;;;;;;;18.35;5.05;;;12.00;99.90;;;;;;4975420;28;20447;-60
2022/08/28 03:47:17;;;;;;;14.40;5.13;;;;;;;;;;4974964;28;20126;-60
2022/08/28 03:49:44;;;;;;;9.55;4.75;;;11.80;99.90;;;;;;4974952;28;20097;-60
2022/08/28 03:52:11;;;;;;;10.32;4.90;;;11.20;99.90;;;;;;4974890;28;20105;-60
2022/08/28 03:54:36;;;;;;;11.80;4.30;;;10.60;99.90;;;;;;4957507;28;20054;-60
2022/08/28 03:57:06;;;;;;;9.55;4.53;;;;;;;;;;4958379;28;20078;-60
2022/08/28 03:59:35;;;;;;;13.55;4.85;;;;;;;;;;4974798;28;20510;-60
2022/08/28 04:02:01;;;;;;;12.25;4.85;;;11.30;99.90;;;;;;4974747;28;20045;-60
2022/08/28 04:04:27;;;;;;;11.73;5.20;;;11.20;99.90;;;;;;4974890;28;20047;-60
2022/08/28 04:06:53;;;;;;;12.07;4.90;;;;;;;;;;4974763;28;20446;-60
2022/08/28 04:09:19;;;;;;;11.85;4.68;;;;;;;;;;4974569;28;20058;-60
2022/08/28 04:11:44;;;;;;;9.20;5.05;;;11.20;99.90;;;;;;4974868;28;20443;-60
2022/08/28 04:14:11;;;;;;;9.32;4.10;;;11.30;99.90;;;;;;4974738;28;20126;-60
2022/08/28 04:16:40;;;;;;;7.05;4.07;;;11.30;99.90;;;;;;4974669;28;20042;-60
2022/08/28 04:19:05;;;;;;;9.85;4.28;;;11.20;99.90;;;;;;4973333;28;20034;-60
2022/08/28 04:21:33;;;;;;;9.65;4.75;;;11.30;99.90;;;;;;4974477;28;20376;-60
2022/08/28 04:23:58;;;;;;;11.20;4.60;;;11.00;99.90;;;;;;4974464;28;20122;-60
2022/08/28 04:26:25;;;;;;;11.18;4.60;;;11.30;99.90;;;;;;4974322;28;20194;-60
2022/08/28 04:28:51;;;;;;;9.32;4.20;;;;;;;;;;4974627;28;20051;-60
2022/08/28 04:31:17;;;;;;;10.23;4.63;;;12.30;99.90;;;;;;4957181;28;20054;-60
2022/08/28 04:33:45;;;;;;;13.50;4.70;;;10.70;99.90;;;;;;4974204;28;20043;-60
2022/08/28 04:36:13;;;;;;;9.82;4.90;;;11.00;99.90;;;;;;4974313;28;20395;-60
2022/08/28 04:38:40;;;;;;;11.15;4.82;;;11.00;99.90;;;;;;4974398;28;20050;-60
2022/08/28 04:41:09;;;;;;;10.70;4.78;;;11.70;99.90;;;;;;4974374;28;20039;-60
2022/08/28 04:43:36;;;;;;;17.15;4.75;;;11.00;99.90;;;;;;4974041;28;20050;-60
2022/08/28 04:46:10;;;;;;;9.25;4.28;;;11.00;99.90;;;;;;4956753;28;20051;-60
2022/08/28 04:48:37;;;;;;;11.35;4.63;;;11.10;99.90;;;;;;4972969;28;20086;-60
2022/08/28 04:51:08;;;;;;;16.33;4.53;;;11.00;99.90;;;;;;4974014;28;20093;-60
2022/08/28 04:53:36;;;;;;;11.95;4.45;;;11.00;99.90;;;;;;4972831;28;20438;-60
2022/08/28 04:56:04;;;;;;;11.20;4.40;;;11.10;99.90;;;;;;4973957;28;20510;-60
2022/08/28 04:58:31;;;;;;;12.18;4.80;;;10.90;99.90;;;;;;4974339;28;20075;-60
2022/08/28 05:00:56;;;;;;;9.13;4.38;;;11.60;99.90;;;;;;4974056;28;20534;-60
2022/08/28 05:03:23;;;;;;;8.60;4.18;;;11.20;99.90;;;;;;4974179;28;20078;-60
2022/08/28 05:05:52;;;;;;;14.23;4.47;;;11.20;99.90;;;;;;4974172;28;20159;-61
2022/08/28 05:08:20;;;;;;;11.60;4.20;;;11.10;99.90;;;;;;4974095;28;20047;-60
2022/08/28 05:10:47;;;;;;;13.90;4.40;;;11.20;99.90;;;;;;4974190;28;20073;-60
2022/08/28 05:13:14;;;;;;;14.20;4.40;;;10.90;99.90;;;;;;4973764;28;20680;-60
2022/08/28 05:15:43;;;;;;;13.38;5.03;;;10.40;99.90;;;;;;4972863;28;20051;-61
2022/08/28 05:18:09;;;;;;;15.13;4.78;;;11.10;99.90;;;;;;4973760;28;20054;-60
2022/08/28 05:20:43;;;;;;;15.23;4.80;;;11.40;99.90;;;;;;4973926;28;20479;-60
2022/08/28 05:23:09;;;;;;;10.20;4.55;;;;;;;;;;4956525;28;20050;-60
2022/08/28 05:25:38;;;;;;;13.70;4.80;;;10.20;99.90;;;;;;4953135;29;20190;-60
2022/08/28 05:28:05;;;;;;;11.52;4.45;;;11.80;99.90;;;;;;4954512;28;20499;-60
2022/08/28 05:30:32;;;;;;;9.88;4.68;;;12.50;99.90;;;;;;4954424;28;20456;-60
2022/08/28 05:32:58;;;;;;;9.52;4.28;;;13.00;99.90;;;;;;4954823;28;20051;-61
2022/08/28 05:35:25;;;;;;;9.38;4.35;;;14.10;99.90;;;;;;4954474;28;20376;-61
2022/08/28 05:37:51;;;;;;;9.85;4.47;;;15.50;99.90;;;;;;4954635;28;20494;-61
2022/08/28 05:40:20;;;;;;;11.55;4.20;;;14.90;99.90;;;;;;4954443;28;20137;-61
2022/08/28 05:42:47;;;;;;;11.57;4.70;;;14.70;99.90;;;;;;4954399;28;20054;-62
2022/08/28 05:45:13;;;;;;;15.23;5.10;;;14.50;99.90;;;;;;4968939;28;20044;-61
2022/08/28 05:47:39;;;;;;;10.73;4.53;;;15.00;99.90;;;;;;4954542;28;20424;-61
2022/08/28 05:50:06;;;;;;;11.93;4.00;;;15.30;99.90;;;;;;4954469;29;20050;-61
2022/08/28 05:52:34;;;;;;;8.60;4.00;;;16.50;99.90;;;;;;4954205;28;20045;-61
2022/08/28 05:55:01;;;;;;;8.30;4.00;;;16.60;99.90;;;;;;4954312;28;20050;-61
2022/08/28 05:57:30;;;;;;;12.98;4.20;;;16.40;99.90;;;;;;4957526;28;20043;-61
2022/08/28 05:59:55;;;;;;;9.70;4.07;;;17.00;99.90;;;;;;4957619;29;20039;-61
2022/08/28 06:02:21;;;;;;;11.70;3.80;;;17.60;99.90;;;;;;4957661;29;20043;-61
2022/08/28 06:04:47;;;;;;;9.00;3.92;;;18.50;99.90;;;;;;4957811;29;20050;-61
2022/08/28 06:07:14;;;;;;;9.98;3.90;;;18.10;99.90;;;;;;4957540;28;20043;-62
2022/08/28 06:09:40;;;;;;;8.93;3.60;;;19.00;99.90;;;;;;4957500;28;20083;-62
2022/08/28 06:12:07;;;;;;;10.32;3.70;;;19.90;99.90;;;;;;4957358;28;20047;-59
2022/08/28 06:14:33;;;;;;;10.02;3.45;;;19.60;99.90;;;;;;4957479;28;20111;-61
2022/08/28 06:17:00;;;;;;;9.63;3.70;;;19.90;99.90;;;;;;4957602;28;20097;-59
2022/08/28 06:19:28;;;;;;;9.43;3.67;;;20.30;99.90;;;;;;4957491;28;20101;-59
2022/08/28 06:21:56;;;;;;;12.82;3.55;;;21.40;99.90;;;;;;4957153;28;20480;-61
2022/08/28 06:24:22;;;;;;;9.95;3.45;;;22.00;99.90;;;;;;4957170;28;20518;-59
2022/08/28 06:26:48;;;;;;;9.82;3.92;;;22.80;99.90;;;;;;4975994;28;20489;-59
2022/08/28 06:29:16;;;;;;;9.45;3.50;;;23.10;99.00;;;;;;4976574;28;20117;-59
2022/08/28 06:31:42;;;;;;;9.43;3.33;;;24.00;97.40;;;;;;4976477;28;20137;-59
2022/08/28 06:34:08;;;;;;;8.23;3.30;;;24.40;93.40;;;;;;4976336;28;20054;-59
2022/08/28 06:36:38;;;;;;;8.02;2.92;;;25.40;93.40;;;;;;4976403;28;20034;-59
2022/08/28 06:39:05;;;;;;;10.80;3.25;;;25.80;91.90;;;;;;4976219;28;20047;-59
2022/08/28 06:41:32;;;;;;;10.00;3.22;;;26.80;89.40;;;;;;4974713;28;20126;-59
2022/08/28 06:43:58;;;;;;;9.18;3.10;;;26.30;80.20;;;;;;4976187;28;20043;-60
2022/08/28 06:46:25;;;;;;;10.00;3.08;;;26.70;82.90;;;;;;4958588;28;20046;-60
2022/08/28 06:48:51;;;;;;;8.95;3.35;;;27.40;81.00;;;;;;4975857;28;20475;-60
2022/08/28 06:51:18;;;;;;;8.15;3.13;;;27.70;78.30;;;;;;4974920;28;20462;-60
2022/08/28 06:53:46;;;;;;;9.82;3.30;;;28.00;69.50;;;;;;4974428;28;20042;-60
2022/08/28 06:56:18;;;;;;;9.63;3.15;;;28.40;68.10;;;;;;4958544;28;20039;-60
2022/08/28 06:58:47;;;;;;;12.65;3.20;;;28.60;65.30;;;;;;4975166;28;20483;-60
2022/08/28 07:01:21;;;;;;;9.05;3.08;;;29.00;63.60;;;;;;4975867;28;20042;-59
2022/08/28 07:03:49;;;;;;;8.02;3.10;;;29.30;59.90;;;;;;4975615;28;20051;-60
2022/08/28 07:06:15;;;;;;;11.18;2.90;;;30.10;67.30;;;;;;4975533;28;20046;-60
2022/08/28 07:08:43;;;;;;;9.88;2.75;;;29.00;68.20;;;;;;4974516;28;20039;-59
2022/08/28 07:11:19;;;;;;;9.23;2.90;;;30.00;64.70;;;;;;4975813;28;20047;-60
2022/08/28 07:13:45;;;;;;;7.93;3.22;;;30.30;65.70;;;;;;4975595;28;20082;-60
2022/08/28 07:16:12;;;;;;;7.13;2.90;;;30.80;66.80;;;;;;4975410;28;20038;-60
2022/08/28 07:18:39;;;;;;;6.88;2.70;;;30.70;60.70;;;;;;4957963;28;20074;-59
2022/08/28 07:21:05;;;;;;;9.40;2.70;;;30.70;60.60;;;;;;4974012;28;20130;-60
2022/08/28 07:23:33;;;;;;;7.55;3.00;;;31.10;61.20;;;;;;4969523;28;20089;-60
2022/08/28 07:26:02;;;;;;;7.60;2.50;;;30.60;61.00;;;;;;4973487;28;20051;-60
2022/08/28 07:28:28;;;;;;;7.07;2.47;;;30.10;62.10;;;;;;4973477;28;20043;-60
2022/08/28 07:30:59;;;;;;;8.27;2.50;;;30.60;59.20;;;;;;4974110;28;20034;-59
2022/08/28 07:33:26;;;;;;;11.60;4.70;;;30.70;52.70;;;;;;4973463;28;20118;-60
2022/08/28 07:35:52;;;;;;;8.18;2.50;;;30.90;58.50;;;;;;4974071;28;20561;-60
2022/08/28 07:38:19;;;;;;;6.22;2.30;;;31.10;51.90;;;;;;4973940;28;20045;-60
2022/08/28 07:40:44;;;;;;;7.70;2.53;;;30.80;56.10;;;;;;4974087;28;20115;-59
2022/08/28 07:46:02;;;;;;;12.80;2.80;;;31.00;49.60;;;;;;4974210;28;20051;-60
2022/08/28 07:48:28;;;;;;;9.15;2.75;;;30.60;56.70;;;;;;4974294;28;20086;-59
2022/08/28 07:50:54;;;;;;;5.68;2.30;;;30.50;57.10;;;;;;4955380;28;20142;-60
2022/08/28 07:53:20;;;;;;;12.20;2.85;;;30.50;51.30;;;;;;4973991;28;20039;-59
2022/08/28 07:55:48;;;;;;;9.77;2.40;;;29.40;58.20;;;;;;4974071;28;20043;-60
2022/08/28 07:58:14;;;;;;;4.90;2.28;;;29.60;52.60;;;;;;4974874;28;20117;-60
2022/08/28 08:00:40;;;;;;;10.25;2.80;;;28.70;53.40;;;;;;4974654;28;20182;-59
2022/08/28 08:03:05;;;;;;;8.43;2.20;;;28.50;55.30;;;;;;4973381;28;20050;-60
2022/08/28 08:05:31;;;;;;;5.93;2.53;;;26.80;63.30;;;;;;4973872;28;20058;-60
2022/08/28 08:07:57;;;;;;;10.73;2.88;;;25.80;63.60;;;;;;4974604;28;20054;-60
2022/08/28 08:10:22;;;;;;;9.23;2.30;;;25.50;66.00;;;;;;4974524;28;20043;-60
2022/08/28 08:12:48;;;;;;;6.80;2.50;;;25.50;69.90;;;;;;4974471;28;20053;-60
2022/08/28 08:15:14;;;;;;;8.07;2.22;;;25.60;70.20;;;;;;4974879;28;20053;-60
2022/08/28 08:17:41;;;;;;;6.00;2.35;;;25.20;62.80;;;;;;4974398;28;20045;-59
2022/08/28 08:20:07;;;;;;;8.05;2.28;;;24.40;70.50;;;;;;4973997;28;20565;-60
2022/08/28 08:22:38;;;;;;;9.57;2.47;;;24.70;69.90;;;;;;4974510;28;20035;-60
2022/08/28 08:25:04;;;;;;;9.30;2.50;;;25.00;64.10;;;;;;4974262;28;20053;-59
2022/08/28 08:27:34;;;;;;;7.68;2.40;;;24.10;73.60;;;;;;4974181;28;20039;-59
2022/08/28 08:30:02;;;;;;;7.22;2.55;;;24.10;66.60;;;;;;4957529;28;20138;-59
2022/08/28 08:32:28;;;;;;;9.80;2.65;;;23.00;75.20;;;;;;4974295;28;20553;-59
2022/08/28 08:34:54;;;;;;;7.47;2.20;;;22.90;71.80;;;;;;4974422;28;20043;-59
2022/08/28 08:37:21;;;;;;;10.25;2.28;;;22.80;77.30;;;;;;4974206;28;20396;-59
2022/08/28 08:39:46;;;;;;;11.60;2.65;;;22.90;70.90;;;;;;4974237;28;20038;-59
2022/08/28 08:42:30;;;;;;;11.38;2.60;;;23.20;80.30;;;;;;4974118;28;20384;-59
2022/08/28 08:44:59;;;;;;;10.20;2.40;;;22.90;70.30;;;;;;4974434;28;20078;-59
2022/08/28 08:47:54;;;;;;;8.70;2.65;;;22.80;71.80;;;;;;4974046;28;20046;-59
2022/08/28 08:50:31;;;;;;;9.27;2.65;;;22.70;71.20;;;;;;4974342;28;20039;-59
2022/08/28 08:53:11;;;;;;;7.82;2.42;;;22.10;83.00;;;;;;4974179;28;20043;-59
2022/08/28 08:55:48;;;;;;;9.02;2.25;;;22.10;73.90;;;;;;4974063;28;20071;-60
2022/08/28 08:58:25;;;;;;;8.35;2.30;;;22.10;75.90;;;;;;4974002;28;20031;-59
2022/08/28 09:01:02;;;;;;;9.23;2.50;;;22.20;83.40;;;;;;4973933;28;20043;-59
2022/08/28 09:03:37;;;;;;;6.00;2.03;;;21.50;79.40;;;;;;4974335;28;20074;-59
2022/08/28 09:06:06;;;;;;;9.10;2.17;;;21.90;78.60;;;;;;4974489;28;20081;-59
2022/08/28 09:08:44;;;;;;;5.80;2.05;;;22.10;79.50;;;;;;4973879;28;20101;-59
2022/08/28 09:11:27;;;;;;;5.45;2.03;;;22.20;71.10;;;;;;4973828;28;20038;-60
2022/08/28 09:13:58;;;;;;;10.10;2.30;;;22.90;76.20;;;;;;4974026;28;20050;-59
2022/08/28 09:16:44;;;;;;;8.85;2.30;;;23.20;74.00;;;;;;4974047;28;20142;-59
2022/08/28 09:19:16;;;;;;;10.75;2.10;;;22.80;68.10;;;;;;4973745;28;20495;-60
2022/08/28 09:21:46;;;;;;;5.90;2.45;;;22.80;68.80;;;;;;4973792;28;20468;-59
2022/08/28 09:24:25;;;;;;;7.90;2.40;;;22.30;76.00;;;;;;4974047;28;20058;-60
2022/08/28 09:26:52;;;;;;;8.40;2.10;;;22.50;68.60;;;;;;4937290;29;20057;-59
2022/08/28 09:29:25;;;;;;;12.10;2.10;;;22.50;76.40;;;;;;4954689;29;20393;-59
2022/08/28 09:31:51;;;;;;;6.97;2.13;;;22.00;69.80;;;;;;4940031;29;20043;-60
2022/08/28 09:34:21;;;;;;;5.40;2.10;;;21.80;78.20;;;;;;4958023;29;20451;-60
2022/08/28 09:36:47;;;;;;;5.60;2.00;;;21.20;77.20;;;;;;4958518;29;20126;-60
2022/08/28 09:39:30;;;;;;;5.47;2.20;;;21.50;76.50;;;;;;4941033;29;20134;-59
2022/08/28 09:45:19;;;;;;;8.95;2.20;;;22.00;74.50;;;;;;4957874;29;20613;-59
2022/08/28 09:47:50;;;;;;;7.43;2.22;;;22.70;74.90;;;;;;4958172;29;20395;-60
2022/08/28 09:50:27;;;;;;;9.98;2.42;;;23.50;76.40;;;;;;4957797;29;20562;-60
2022/08/28 09:52:56;;;;;;;5.30;2.20;;;22.80;75.90;;;;;;4957622;29;20171;-59
2022/08/28 09:55:50;;;;;;;7.75;2.40;;;22.80;74.80;;;;;;4957933;29;20047;-59
2022/08/28 09:58:16;;;;;;;6.45;2.42;;;22.40;75.20;;;;;;4957909;29;20082;-59
2022/08/28 10:00:52;;;;;;;7.28;2.13;;;22.10;68.90;;;;;;4957766;29;20069;-59
2022/08/28 10:03:24;;;;;;;8.32;2.40;;;22.00;69.80;;;;;;4958059;29;20599;-59
2022/08/28 10:06:12;;;;;;;8.63;2.38;;;22.10;70.70;;;;;;4957508;29;20047;-59
2022/08/28 10:09:04;;;;;;;7.95;2.40;;;22.00;78.10;;;;;;4957547;29;20093;-60
2022/08/28 10:11:30;;;;;;;9.65;2.97;;;21.90;70.00;;;;;;4957330;29;20487;-59
2022/08/28 10:14:08;;;;;;;7.80;2.72;;;21.70;81.00;;;;;;4957548;29;20043;-60
2022/08/28 10:17:09;;;;;;;6.25;2.40;;;21.80;73.10;;;;;;4957449;29;20046;-60
2022/08/28 10:20:02;;;;;;;7.80;2.60;;;22.00;72.40;;;;;;4956296;29;20041;-60
2022/08/28 10:22:37;;;;;;;9.70;2.40;;;22.20;70.90;;;;;;4952257;28;20047;-59
2022/08/28 10:25:12;;;;;;;5.88;2.20;;;22.50;78.20;;;;;;4961728;28;20090;-59
2022/08/28 10:27:57;;;;;;;6.65;2.78;;;22.50;77.00;;;;;;4979117;28;20047;-59
2022/08/28 10:30:24;;;;;;;8.07;2.40;;;22.80;74.70;;;;;;4975996;28;20427;-60
2022/08/28 10:33:07;;;;;;;6.03;2.03;;;22.30;78.90;;;;;;4976193;28;20050;-59
2022/08/28 10:36:05;;;;;;;8.90;2.28;;;22.30;70.60;;;;;;4975676;28;20283;-60
2022/08/28 10:38:42;;;;;;;6.88;2.35;;;22.50;70.20;;;;;;4975412;28;20123;-61
2022/08/28 10:41:20;;;;;;;7.53;2.42;;;22.20;76.10;;;;;;4957758;28;20046;-60
2022/08/28 10:43:51;;;;;;;8.70;2.25;;;22.80;77.10;;;;;;4975402;28;20042;-60
2022/08/28 10:46:26;;;;;;;9.40;2.70;;;22.50;78.40;;;;;;4975429;28;20105;-60
2022/08/28 10:48:58;;;;;;;8.68;2.40;;;22.60;78.70;;;;;;4956904;28;20110;-60
2022/08/28 10:51:43;;;;;;;6.05;2.05;;;22.80;69.00;;;;;;4973240;28;20488;-60
2022/08/28 10:54:22;;;;;;;9.25;2.20;;;22.70;71.80;;;;;;4973768;28;20054;-60
2022/08/28 10:57:18;;;;;;;6.88;2.38;;;22.60;72.60;;;;;;4973909;28;20150;-60
2022/08/28 10:59:46;;;;;;;;;;;22.30;66.00;;;;;;4943722;28;20150;-60
2022/08/28 11:02:13;;;;;;;8.57;2.50;;;21.40;74.50;;;;;;4956936;28;19925;-60
2022/08/28 11:04:39;;;;;;;5.75;2.40;;;21.70;68.30;;;;;;4973467;28;20057;-60
2022/08/28 11:07:10;;;;;;;7.80;2.50;;;21.80;68.90;;;;;;4974072;28;20046;-60
2022/08/28 11:09:38;;;;;;;6.43;2.20;;;22.50;73.40;;;;;;4973553;28;20417;-60
2022/08/28 11:12:26;;;;;;;6.20;2.30;;;23.50;71.80;;;;;;4973765;28;20042;-60
2022/08/28 11:14:52;;;;;;;4.57;2.00;;;22.80;64.70;;;;;;4973187;28;20051;-60
2022/08/28 11:17:26;;;;;;;6.72;2.35;;;22.60;65.00;;;;;;4973813;28;20039;-60
2022/08/28 11:20:00;;;;;;;7.18;2.60;;;22.10;66.90;;;;;;4973661;28;20512;-60
2022/08/28 11:22:37;;;;;;;7.90;2.28;;;22.20;75.90;;;;;;4975223;28;20043;-60
2022/08/28 11:25:21;;;;;;;6.43;2.60;;;23.10;76.20;;;;;;4974402;28;20043;-60
2022/08/28 11:28:38;;;;;;;4.50;2.40;;;22.40;73.40;;;;;;4974283;28;20055;-60
2022/08/28 11:31:04;;;;;;;6.85;2.30;;;22.70;65.90;;;;;;4973988;28;20125;-60
2022/08/28 11:33:49;;;;;;;6.90;2.55;;;22.70;66.50;;;;;;4973793;28;20129;-60
2022/08/28 11:36:18;;;;;;;8.07;2.30;;;23.10;66.20;;;;;;4975102;28;20475;-60
2022/08/28 11:38:43;;;;;;;10.82;2.40;;;23.40;64.20;;;;;;4973902;28;20081;-60
2022/08/28 11:41:20;;;;;;;5.38;2.10;;;23.40;64.00;;;;;;4973624;28;20074;-60
2022/08/28 11:43:49;;;;;;;7.90;2.47;;;23.10;64.00;;;;;;4974889;28;20105;-60
2022/08/28 11:46:15;;;;;;;6.68;2.55;;;22.90;65.70;;;;;;4974239;28;20391;-60
2022/08/28 11:48:49;;;;;;;4.50;2.30;;;23.20;65.60;;;;;;4975133;28;20065;-60
2022/08/28 11:51:44;;;;;;;8.48;2.47;;;23.00;64.50;;;;;;4975312;28;20049;-60
2022/08/28 11:54:22;;;;;;;7.30;2.28;;;22.60;65.00;;;;;;4970319;28;20046;-60
2022/08/28 11:56:53;;;;;;;6.10;2.15;;;22.00;72.90;;;;;;4973976;28;20470;-60
2022/08/28 11:59:30;;;;;;;7.65;2.47;;;22.10;66.60;;;;;;4974582;28;20054;-60
2022/08/28 12:02:24;;;;;;;7.30;2.60;;;22.10;77.90;;;;;;4974458;28;20109;-60
2022/08/28 12:04:49;;;;;;;7.28;2.30;;;22.10;68.00;;;;;;4974626;28;20043;-60
2022/08/28 12:07:18;;;;;;;7.78;2.40;;;23.00;74.50;;;;;;4974847;28;20035;-60
2022/08/28 12:09:48;;;;;;;6.82;2.42;;;23.30;73.40;;;;;;4974724;28;20046;-60
2022/08/28 12:12:20;;;;;;;7.10;2.30;;;23.00;65.20;;;;;;4974665;28;20050;-60
2022/08/28 12:14:45;;;;;;;9.50;2.40;;;22.90;65.40;;;;;;4974439;28;20051;-60
2022/08/28 12:17:17;;;;;;;5.15;2.38;;;22.70;65.30;;;;;;4974461;28;20395;-60
2022/08/28 12:19:56;;;;;;;3.45;2.10;;;22.70;64.40;;;;;;4974745;28;20217;-60
2022/08/28 12:22:38;;;;;;;4.32;2.10;;;22.20;71.00;;;;;;4974493;28;20451;-60
2022/08/28 12:25:10;;;;;;;7.28;2.50;;;22.40;63.60;;;;;;4974206;28;20125;-60
2022/08/28 12:27:38;;;;;;;6.93;2.30;;;22.60;64.60;;;;;;4974762;28;20054;-60
2022/08/28 12:30:04;;;;;;;6.18;2.50;;;22.80;64.80;;;;;;4974319;28;20479;-60
2022/08/28 12:32:33;;;;;;;8.82;2.33;;;23.10;63.90;;;;;;4974533;28;20434;-60
2022/08/28 12:34:58;;;;;;;8.95;2.67;;;23.20;72.00;;;;;;4974254;28;20053;-60
2022/08/28 12:37:28;;;;;;;8.27;2.60;;;22.90;64.50;;;;;;4974254;28;20406;-60
2022/08/28 12:39:56;;;;;;;10.45;2.40;;;22.90;65.10;;;;;;4974549;28;20460;-60
2022/08/28 12:42:30;;;;;;;5.80;2.30;;;22.60;72.40;;;;;;4974244;28;20542;-60
2022/08/28 12:45:04;;;;;;;7.47;2.50;;;22.60;65.90;;;;;;4974156;28;20542;-60
2022/08/28 12:47:30;;;;;;;7.33;2.33;;;22.40;64.10;;;;;;4974196;28;20043;-60
2022/08/28 12:49:56;;;;;;;7.57;2.40;;;22.90;71.50;;;;;;4956855;28;20051;-60
2022/08/28 12:52:24;;;;;;;6.45;2.30;;;22.90;63.90;;;;;;4974024;28;20481;-61
2022/08/28 12:54:51;;;;;;;5.88;2.50;;;23.30;63.50;;;;;;4974145;28;20078;-60
2022/08/28 12:57:20;;;;;;;9.35;2.72;;;23.70;63.40;;;;;;4974189;28;20504;-60
2022/08/28 12:59:49;;;;;;;4.88;2.35;;;24.10;61.20;;;;;;4974288;28;20047;-60
2022/08/28 13:02:17;;;;;;;8.68;2.55;;;24.50;60.20;;;;;;4973986;28;20035;-61
2022/08/28 13:05:00;;;;;;;4.80;2.10;;;24.20;65.30;;;;;;4974718;28;20042;-61
2022/08/28 13:07:28;;;;;;;4.70;2.35;;;24.00;59.30;;;;;;4978528;28;20398;-60
2022/08/28 13:09:56;;;;;;;6.65;2.42;;;23.60;60.40;;;;;;4977848;28;20039;-60
2022/08/28 13:12:28;;;;;;;8.32;2.38;;;23.30;69.50;;;;;;4977833;28;20053;-60